createdAt,value
2019-06-07T00:00:38.867Z,15.90
2019-06-07T00:02:51.378Z,15.90
2019-06-07T00:05:19.972Z,15.90
2019-06-07T00:07:47.105Z,15.90
2019-06-07T00:10:34.611Z,15.80
2019-06-07T00:12:42.911Z,15.80
2019-06-07T00:15:11.733Z,15.80
2019-06-07T00:17:38.958Z,15.80
2019-06-07T00:20:09.349Z,15.80
2019-06-07T00:22:35.299Z,15.80
2019-06-07T00:25:02.322Z,15.80
2019-06-07T00:27:29.109Z,15.80
2019-06-07T00:29:55.914Z,15.80
2019-06-07T00:32:22.704Z,15.80
2019-06-07T00:34:49.481Z,15.80
2019-06-07T00:37:17.122Z,15.80
2019-06-07T00:39:44.991Z,15.80
2019-06-07T00:42:16.649Z,15.80
2019-06-07T00:44:40.663Z,15.70
2019-06-07T00:47:07.458Z,15.70
2019-06-07T00:49:40.996Z,15.80
2019-06-07T00:52:03.281Z,15.70
2019-06-07T00:54:30.261Z,15.70
2019-06-07T00:56:57.042Z,15.70
2019-06-07T00:59:29.294Z,15.70
2019-06-07T01:01:52.644Z,15.70
2019-06-07T01:04:21.272Z,15.70
2019-06-07T01:06:48.129Z,15.70
2019-06-07T01:09:15.356Z,15.70
2019-06-07T01:11:42.299Z,15.70
2019-06-07T01:14:09.177Z,15.60
2019-06-07T01:16:55.283Z,15.60
2019-06-07T01:19:04.966Z,15.60
2019-06-07T01:21:31.838Z,15.60
2019-06-07T01:24:11.618Z,15.60
2019-06-07T01:26:30.163Z,15.60
2019-06-07T01:28:56.077Z,15.60
2019-06-07T01:31:25.402Z,15.60
2019-06-07T01:33:51.638Z,15.50
2019-06-07T01:36:20.052Z,15.50
2019-06-07T01:38:47.292Z,15.50
2019-06-07T01:41:14.234Z,15.50
2019-06-07T01:43:41.092Z,15.50
2019-06-07T01:46:07.964Z,15.50
2019-06-07T01:48:49.076Z,15.50
2019-06-07T01:51:03.580Z,15.50
2019-06-07T01:53:31.591Z,15.50
2019-06-07T01:55:58.654Z,15.50
2019-06-07T01:58:28.772Z,15.50
2019-06-07T02:00:54.250Z,15.50
2019-06-07T02:03:22.319Z,15.50
2019-06-07T02:05:55.957Z,15.50
2019-06-07T02:08:24.498Z,15.50
2019-06-07T02:10:51.517Z,15.50
2019-06-07T02:13:18.780Z,15.50
2019-06-07T02:15:45.841Z,15.50
2019-06-07T02:18:12.677Z,15.50
2019-06-07T02:20:39.505Z,15.50
2019-06-07T02:23:06.322Z,15.40
2019-06-07T02:25:43.811Z,15.40
2019-06-07T02:28:26.773Z,15.40
2019-06-07T02:30:47.078Z,15.40
2019-06-07T02:32:59.575Z,15.40
2019-06-07T02:35:38.751Z,15.40
2019-06-07T02:37:55.225Z,15.30
2019-06-07T02:40:24.385Z,15.40
2019-06-07T02:42:51.366Z,15.40
2019-06-07T02:45:18.377Z,15.40
2019-06-07T02:47:46.869Z,15.30
2019-06-07T02:50:14.453Z,15.30
2019-06-07T02:52:41.986Z,15.30
2019-06-07T02:55:10.183Z,15.30
2019-06-07T02:57:41.605Z,15.30
2019-06-07T03:00:40.731Z,15.30
2019-06-07T03:02:41.205Z,15.30
2019-06-07T03:05:07.024Z,15.20
2019-06-07T03:07:39.102Z,15.20
2019-06-07T03:10:04.663Z,15.20
2019-06-07T03:12:34.019Z,15.20
2019-06-07T03:15:02.726Z,15.20
2019-06-07T03:17:45.483Z,15.20
2019-06-07T03:20:13.897Z,15.20
2019-06-07T03:22:41.795Z,15.20
2019-06-07T03:25:09.242Z,15.20
2019-06-07T03:27:47.312Z,15.20
2019-06-07T03:30:35.164Z,15.20
2019-06-07T03:32:42.932Z,15.20
2019-06-07T03:35:03.822Z,15.30
2019-06-07T03:37:34.817Z,15.20
2019-06-07T03:40:05.877Z,15.20
2019-06-07T03:42:34.838Z,15.20
2019-06-07T03:45:01.574Z,15.20
2019-06-07T03:47:30.754Z,15.20
2019-06-07T03:49:57.029Z,15.20
2019-06-07T03:52:23.921Z,15.20
2019-06-07T03:54:50.701Z,15.20
2019-06-07T03:57:17.518Z,15.20
2019-06-07T03:59:44.297Z,15.10
2019-06-07T04:02:11.078Z,15.00
2019-06-07T04:04:39.561Z,15.00
2019-06-07T04:07:06.672Z,14.90
2019-06-07T04:09:37.454Z,14.90
2019-06-07T04:12:02.181Z,14.80
2019-06-07T04:14:29.723Z,14.80
2019-06-07T04:16:57.648Z,14.80
2019-06-07T04:19:24.579Z,14.70
2019-06-07T04:21:51.367Z,14.70
2019-06-07T04:24:18.145Z,14.70
2019-06-07T04:26:46.826Z,14.70
2019-06-07T04:31:43.190Z,14.60
2019-06-07T04:34:10.381Z,14.60
2019-06-07T04:36:51.960Z,14.60
2019-06-07T04:39:07.231Z,14.60
2019-06-07T04:41:37.224Z,14.60
2019-06-07T04:44:03.990Z,14.60
2019-06-07T04:46:31.570Z,14.60
2019-06-07T04:49:02.590Z,14.60
2019-06-07T04:51:31.978Z,14.50
2019-06-07T04:54:00.238Z,14.50
2019-06-07T04:56:27.113Z,14.40
2019-06-07T04:58:54.146Z,14.40
2019-06-07T05:01:27.511Z,14.40
2019-06-07T05:03:49.801Z,14.40
2019-06-07T05:06:16.701Z,14.40
2019-06-07T05:08:44.033Z,14.40
2019-06-07T05:11:11.106Z,14.40
2019-06-07T05:13:39.006Z,14.40
2019-06-07T05:16:06.661Z,14.40
2019-06-07T05:18:35.630Z,14.40
2019-06-07T05:21:02.186Z,14.30
2019-06-07T05:24:02.463Z,14.30
2019-06-07T05:25:57.794Z,14.40
2019-06-07T05:28:24.581Z,14.40
2019-06-07T05:31:03.392Z,14.40
2019-06-07T05:33:20.201Z,14.40
2019-06-07T05:35:46.982Z,14.40
2019-06-07T05:38:13.957Z,14.40
2019-06-07T05:40:45.988Z,14.40
2019-06-07T05:43:21.728Z,14.30
2019-06-07T05:45:48.658Z,14.30
2019-06-07T05:48:15.546Z,14.30
2019-06-07T05:50:55.344Z,14.40
2019-06-07T05:53:11.149Z,14.40
2019-06-07T05:55:41.543Z,14.40
2019-06-07T05:58:06.829Z,14.50
2019-06-07T06:00:36.091Z,14.40
2019-06-07T06:03:05.708Z,14.40
2019-06-07T06:05:37.486Z,14.40
2019-06-07T06:08:00.738Z,14.40
2019-06-07T06:10:27.724Z,14.40
2019-06-07T06:12:54.629Z,14.50
2019-06-07T06:15:33.010Z,14.50
2019-06-07T06:17:53.871Z,14.50
2019-06-07T06:20:19.332Z,14.50
2019-06-07T06:22:48.811Z,14.50
2019-06-07T06:25:33.526Z,14.60
2019-06-07T06:30:15.019Z,14.60
2019-06-07T06:32:50.770Z,14.70
2019-06-07T06:35:10.960Z,14.70
2019-06-07T06:37:41.601Z,14.90
2019-06-07T06:40:07.626Z,14.90
2019-06-07T06:42:34.409Z,15.00
2019-06-07T06:45:01.391Z,15.10
2019-06-07T06:47:28.303Z,15.10
2019-06-07T06:49:55.078Z,15.10
2019-06-07T06:52:21.866Z,15.10
2019-06-07T06:54:59.338Z,15.10
2019-06-07T06:57:19.988Z,15.10
2019-06-07T06:59:50.420Z,15.00
2019-06-07T07:02:14.996Z,15.00
2019-06-07T07:04:43.523Z,15.00
2019-06-07T07:07:10.899Z,15.00
2019-06-07T07:09:37.973Z,15.00
2019-06-07T07:12:11.657Z,15.20
2019-06-07T07:14:33.716Z,15.30
2019-06-07T07:17:00.598Z,15.30
2019-06-07T07:19:27.389Z,15.40
2019-06-07T07:21:55.438Z,15.30
2019-06-07T07:24:22.661Z,15.40
2019-06-07T07:26:51.167Z,15.40
2019-06-07T07:29:18.359Z,15.40
2019-06-07T07:31:46.334Z,15.50
2019-06-07T07:34:31.837Z,15.40
2019-06-07T07:36:47.174Z,15.40
2019-06-07T07:39:11.906Z,15.40
2019-06-07T07:41:38.691Z,15.40
2019-06-07T07:44:07.584Z,15.50
2019-06-07T07:46:35.458Z,15.60
2019-06-07T07:49:02.814Z,15.70
2019-06-07T07:51:29.638Z,15.80
2019-06-07T07:54:09.614Z,15.90
2019-06-07T07:56:25.203Z,16.00
2019-06-07T07:58:57.957Z,16.10
2019-06-07T08:01:20.715Z,16.40
2019-06-07T08:03:48.137Z,16.50
2019-06-07T08:06:15.190Z,16.80
2019-06-07T08:08:42.075Z,16.90
2019-06-07T08:11:08.898Z,16.90
2019-06-07T08:13:35.678Z,16.70
2019-06-07T08:16:10.942Z,16.80
2019-06-07T08:18:31.500Z,16.90
2019-06-07T08:21:17.228Z,16.90
2019-06-07T08:23:27.209Z,16.80
2019-06-07T08:25:58.504Z,16.90
2019-06-07T08:28:23.296Z,17.00
2019-06-07T08:30:56.789Z,17.00
2019-06-07T08:33:27.043Z,16.60
2019-06-07T08:36:12.003Z,16.50
2019-06-07T08:38:26.581Z,16.60
2019-06-07T08:40:45.370Z,16.60
2019-06-07T08:43:20.360Z,16.70
2019-06-07T08:45:41.170Z,16.70
2019-06-07T08:48:26.711Z,16.60
2019-06-07T08:50:36.862Z,16.70
2019-06-07T08:53:11.785Z,16.80
2019-06-07T08:55:32.786Z,16.80
2019-06-07T08:58:04.250Z,16.90
2019-06-07T09:00:45.602Z,17.10
2019-06-07T09:03:03.436Z,16.80
2019-06-07T09:05:27.695Z,16.80
2019-06-07T09:08:21.088Z,16.70
2019-06-07T09:10:23.414Z,16.70
2019-06-07T09:13:10.954Z,16.70
2019-06-07T09:15:33.248Z,16.90
2019-06-07T09:20:43.187Z,16.70
2019-06-07T09:23:16.813Z,16.60
2019-06-07T09:25:55.869Z,16.70
2019-06-07T09:28:15.795Z,16.80
2019-06-07T09:30:39.166Z,16.90
2019-06-07T09:33:07.047Z,16.90
2019-06-07T09:35:34.509Z,17.00
2019-06-07T09:38:18.026Z,16.90
2019-06-07T09:40:30.657Z,17.00
2019-06-07T09:43:47.319Z,17.10
2019-06-07T09:45:26.279Z,17.10
2019-06-07T09:47:53.069Z,16.90
2019-06-07T09:50:19.989Z,17.00
2019-06-07T09:52:57.887Z,17.00
2019-06-07T09:55:24.243Z,17.10
2019-06-07T09:57:44.294Z,17.00
2019-06-07T10:00:39.200Z,16.90
2019-06-07T10:02:41.747Z,17.20
2019-06-07T10:05:14.153Z,17.10
2019-06-07T10:07:37.705Z,17.00
2019-06-07T10:12:33.645Z,16.80
2019-06-07T10:15:00.673Z,17.10
2019-06-07T10:17:27.726Z,17.10
2019-06-07T10:19:54.738Z,17.30
2019-06-07T10:22:21.634Z,17.20
2019-06-07T10:24:48.414Z,17.40
2019-06-07T10:27:15.326Z,17.90
2019-06-07T10:29:42.210Z,18.10
2019-06-07T10:32:09.265Z,17.90
2019-06-07T10:34:36.257Z,17.80
2019-06-07T10:37:05.264Z,17.80
2019-06-07T10:39:44.939Z,17.80
2019-06-07T10:42:00.996Z,17.70
2019-06-07T10:44:27.942Z,17.70
2019-06-07T10:46:54.906Z,17.80
2019-06-07T10:49:21.727Z,17.60
2019-06-07T10:51:48.514Z,17.60
2019-06-07T10:54:24.750Z,17.40
2019-06-07T10:56:44.014Z,17.40
2019-06-07T10:59:11.905Z,17.60
2019-06-07T11:01:39.354Z,17.70
2019-06-07T11:04:07.676Z,17.80
2019-06-07T11:06:34.840Z,17.60
2019-06-07T11:09:01.777Z,17.50
2019-06-07T11:11:28.664Z,17.70
2019-06-07T11:13:55.653Z,17.80
2019-06-07T11:16:22.445Z,17.80
2019-06-07T11:18:49.367Z,17.80
2019-06-07T11:21:16.252Z,17.90
2019-06-07T11:23:43.123Z,17.80
2019-06-07T11:26:10.350Z,17.80
2019-06-07T11:28:37.299Z,17.90
2019-06-07T11:31:04.179Z,17.90
2019-06-07T11:33:31.049Z,18.00
2019-06-07T11:35:57.844Z,17.90
2019-06-07T11:38:24.639Z,17.70
2019-06-07T11:40:51.468Z,18.00
2019-06-07T11:43:19.077Z,17.90
2019-06-07T11:45:46.035Z,18.00
2019-06-07T11:48:13.475Z,17.80
2019-06-07T11:50:40.533Z,17.80
2019-06-07T11:53:08.551Z,17.80
2019-06-07T11:55:35.563Z,18.00
2019-06-07T11:58:02.457Z,17.90
2019-06-07T12:00:30.085Z,17.70
2019-06-07T12:02:58.468Z,17.60
2019-06-07T12:05:25.445Z,17.70
2019-06-07T12:07:52.221Z,17.80
2019-06-07T12:10:22.817Z,17.80
2019-06-07T12:12:47.956Z,17.80
2019-06-07T12:15:16.968Z,17.80
2019-06-07T12:17:44.274Z,17.80
2019-06-07T12:20:14.257Z,17.70
2019-06-07T12:22:40.283Z,17.90
2019-06-07T12:25:07.270Z,17.90
2019-06-07T12:27:34.066Z,18.00
2019-06-07T12:30:09.183Z,18.00
2019-06-07T12:32:29.722Z,18.00
2019-06-07T12:34:56.601Z,18.10
2019-06-07T12:37:39.295Z,18.00
2019-06-07T12:39:52.143Z,18.00
2019-06-07T12:42:19.088Z,17.90
2019-06-07T12:44:46.072Z,18.00
2019-06-07T12:47:13.090Z,18.10
2019-06-07T12:49:39.883Z,17.90
2019-06-07T12:52:06.854Z,17.70
2019-06-07T12:54:33.780Z,17.60
2019-06-07T12:57:00.767Z,17.80
2019-06-07T12:59:27.566Z,17.80
2019-06-07T13:01:54.379Z,17.60
2019-06-07T13:04:22.505Z,17.70
2019-06-07T13:06:49.550Z,17.60
2019-06-07T13:09:17.690Z,17.70
2019-06-07T13:11:44.814Z,17.90
2019-06-07T13:14:11.622Z,18.10
2019-06-07T13:16:38.425Z,18.20
2019-06-07T13:19:05.417Z,18.20
2019-06-07T13:21:32.451Z,18.30
2019-06-07T13:23:59.222Z,18.40
2019-06-07T13:26:26.158Z,18.30
2019-06-07T13:28:52.990Z,18.50
2019-06-07T13:31:21.019Z,18.40
2019-06-07T13:33:48.317Z,18.40
2019-06-07T13:36:16.033Z,18.70
2019-06-07T13:38:43.029Z,18.90
2019-06-07T13:41:09.821Z,19.20
2019-06-07T13:43:36.796Z,19.00
2019-06-07T13:46:03.591Z,19.10
2019-06-07T13:48:30.486Z,19.30
2019-06-07T13:50:57.457Z,19.40
2019-06-07T13:53:25.035Z,19.50
2019-06-07T13:55:52.071Z,19.50
2019-06-07T13:58:20.873Z,19.50
2019-06-07T14:00:47.709Z,19.40
2019-06-07T14:03:14.599Z,19.30
2019-06-07T14:05:41.433Z,19.10
2019-06-07T14:08:08.342Z,19.10
2019-06-07T14:10:35.453Z,19.60
2019-06-07T14:13:02.388Z,19.40
2019-06-07T14:15:34.162Z,19.50
2019-06-07T14:17:57.996Z,19.50
2019-06-07T14:20:28.969Z,19.20
2019-06-07T14:22:54.716Z,19.00
2019-06-07T14:25:22.788Z,19.20
2019-06-07T14:27:50.021Z,19.20
2019-06-07T14:30:17.018Z,19.30
2019-06-07T14:32:43.827Z,19.50
2019-06-07T14:35:11.066Z,19.90
2019-06-07T14:37:37.979Z,19.80
2019-06-07T14:40:06.809Z,19.70
2019-06-07T14:42:33.836Z,19.70
2019-06-07T14:45:05.725Z,19.60
2019-06-07T14:47:29.989Z,19.50
2019-06-07T14:49:57.009Z,19.60
2019-06-07T14:52:24.376Z,20.00
2019-06-07T14:54:51.664Z,20.20
2019-06-07T14:57:18.830Z,20.10
2019-06-07T14:59:45.766Z,20.00
2019-06-07T15:02:12.799Z,20.10
2019-06-07T15:04:41.073Z,19.60
2019-06-07T15:07:10.698Z,19.80
2019-06-07T15:09:39.285Z,19.80
2019-06-07T15:12:06.358Z,19.90
2019-06-07T15:14:33.478Z,20.00
2019-06-07T15:17:00.667Z,19.80
2019-06-07T15:19:28.816Z,19.40
2019-06-07T15:21:55.843Z,19.60
2019-06-07T15:24:22.732Z,19.90
2019-06-07T15:26:49.792Z,20.00
2019-06-07T15:29:16.779Z,20.30
2019-06-07T15:31:43.707Z,20.70
2019-06-07T15:34:10.549Z,21.00
2019-06-07T15:36:38.708Z,20.70
2019-06-07T15:39:07.241Z,20.70
2019-06-07T15:41:35.061Z,20.60
2019-06-07T15:44:01.978Z,20.60
2019-06-07T15:46:29.458Z,20.10
2019-06-07T15:48:56.418Z,20.00
2019-06-07T15:51:23.228Z,20.10
2019-06-07T15:53:50.146Z,20.30
2019-06-07T15:56:16.955Z,20.20
2019-06-07T15:58:43.746Z,20.10
2019-06-07T16:01:10.578Z,20.10
2019-06-07T16:03:37.932Z,19.80
2019-06-07T16:06:05.139Z,20.00
2019-06-07T16:08:32.336Z,20.20
2019-06-07T16:10:59.225Z,20.20
2019-06-07T16:13:26.080Z,20.60
2019-06-07T16:15:53.010Z,20.80
2019-06-07T16:18:19.810Z,20.90
2019-06-07T16:20:46.608Z,21.10
2019-06-07T16:23:13.431Z,21.10
2019-06-07T16:25:40.366Z,20.70
2019-06-07T16:28:07.418Z,20.30
2019-06-07T16:30:34.360Z,20.20
2019-06-07T16:33:01.279Z,20.10
2019-06-07T16:35:28.314Z,20.00
2019-06-07T16:37:55.239Z,20.00
2019-06-07T16:40:22.245Z,19.80
2019-06-07T16:42:49.276Z,19.80
2019-06-07T16:45:16.618Z,19.80
2019-06-07T16:47:45.980Z,19.80
2019-06-07T16:50:12.863Z,19.80
2019-06-07T16:52:39.814Z,19.80
2019-06-07T16:55:07.414Z,19.90
2019-06-07T16:57:34.394Z,19.70
2019-06-07T17:00:01.418Z,19.60
2019-06-07T17:02:28.420Z,19.40
2019-06-07T17:04:55.468Z,19.50
2019-06-07T17:07:22.355Z,19.40
2019-06-07T17:09:49.493Z,19.30
2019-06-07T17:12:16.621Z,19.30
2019-06-07T17:14:44.506Z,19.50
2019-06-07T17:17:11.528Z,19.60
2019-06-07T17:19:38.837Z,19.50
2019-06-07T17:22:05.732Z,19.40
2019-06-07T17:24:32.537Z,19.50
2019-06-07T17:26:59.454Z,19.30
2019-06-07T17:29:26.450Z,19.20
2019-06-07T17:31:53.373Z,19.00
2019-06-07T17:34:20.398Z,18.90
2019-06-07T17:36:48.526Z,18.80
2019-06-07T17:39:15.931Z,18.50
2019-06-07T17:41:55.269Z,18.30
2019-06-07T17:44:11.554Z,18.10
2019-06-07T17:46:38.618Z,17.90
2019-06-07T17:49:05.526Z,17.70
2019-06-07T17:51:32.315Z,17.60
2019-06-07T17:53:59.375Z,17.40
2019-06-07T17:56:26.175Z,17.30
2019-06-07T17:58:52.964Z,17.20
2019-06-07T18:01:19.801Z,17.10
2019-06-07T18:03:47.077Z,17.20
2019-06-07T18:06:15.028Z,17.10
2019-06-07T18:08:43.356Z,17.00
2019-06-07T18:11:10.465Z,16.80
2019-06-07T18:13:37.593Z,16.80
2019-06-07T18:16:04.498Z,16.80
2019-06-07T18:18:31.515Z,16.80
2019-06-07T18:20:58.333Z,16.70
2019-06-07T18:23:25.246Z,16.70
2019-06-07T18:25:52.557Z,16.60
2019-06-07T18:28:19.690Z,16.60
2019-06-07T18:30:46.697Z,16.40
2019-06-07T18:33:13.585Z,16.30
2019-06-07T18:35:40.413Z,16.30
2019-06-07T18:38:10.597Z,16.40
2019-06-07T18:40:36.235Z,16.40
2019-06-07T18:43:03.585Z,16.50
2019-06-07T18:45:30.461Z,16.50
2019-06-07T18:47:57.785Z,16.40
2019-06-07T18:50:24.795Z,16.40
2019-06-07T18:52:52.700Z,16.40
2019-06-07T18:55:19.810Z,16.30
2019-06-07T18:57:48.049Z,16.20
2019-06-07T19:00:15.964Z,16.10
2019-06-07T19:02:42.804Z,16.00
2019-06-07T19:05:09.990Z,16.00
2019-06-07T19:07:36.967Z,15.90
2019-06-07T19:10:04.823Z,15.80
2019-06-07T19:12:31.836Z,15.80
2019-06-07T19:14:59.670Z,15.70
2019-06-07T19:17:26.674Z,15.60
2019-06-07T19:19:54.147Z,15.60
2019-06-07T19:22:21.213Z,15.50
2019-06-07T19:24:48.018Z,15.40
2019-06-07T19:27:14.861Z,15.30
2019-06-07T19:29:41.805Z,15.30
2019-06-07T19:32:08.601Z,15.20
2019-06-07T19:34:35.478Z,15.10
2019-06-07T19:37:02.422Z,15.00
2019-06-07T19:39:29.285Z,14.80
2019-06-07T19:41:56.159Z,14.70
2019-06-07T19:44:22.958Z,14.60
2019-06-07T19:46:49.745Z,14.50
2019-06-07T19:49:16.682Z,14.50
2019-06-07T19:51:43.693Z,14.40
2019-06-07T19:54:10.508Z,14.40
2019-06-07T19:56:37.402Z,14.20
2019-06-07T19:59:04.434Z,14.20
2019-06-07T20:01:31.353Z,14.10
2019-06-07T20:03:58.257Z,14.00
2019-06-07T20:06:25.046Z,13.90
2019-06-07T20:08:52.061Z,13.90
2019-06-07T20:11:18.892Z,13.80
2019-06-07T20:13:45.797Z,13.70
2019-06-07T20:16:12.626Z,13.70
2019-06-07T20:18:39.515Z,13.60
2019-06-07T20:21:06.336Z,13.50
2019-06-07T20:23:33.376Z,13.40
2019-06-07T20:26:00.224Z,13.40
2019-06-07T20:28:27.155Z,13.30
2019-06-07T20:30:54.282Z,13.30
2019-06-07T20:33:21.186Z,13.20
2019-06-07T20:35:48.003Z,13.30
2019-06-07T20:38:14.834Z,13.40
2019-06-07T20:40:41.613Z,13.40
2019-06-07T20:43:08.409Z,13.40
2019-06-07T20:45:35.221Z,13.40
2019-06-07T20:48:02.109Z,13.30
2019-06-07T20:50:29.159Z,13.30
2019-06-07T20:52:56.027Z,13.30
2019-06-07T20:55:22.805Z,13.30
2019-06-07T20:57:49.667Z,13.20
2019-06-07T21:00:21.767Z,13.20
2019-06-07T21:02:45.555Z,13.20
2019-06-07T21:05:12.682Z,13.10
2019-06-07T21:07:39.462Z,13.10
2019-06-07T21:10:08.231Z,13.00
2019-06-07T21:12:35.400Z,13.00
2019-06-07T21:15:07.071Z,13.00
2019-06-07T21:17:31.446Z,13.00
2019-06-07T21:19:58.281Z,13.00
2019-06-07T21:22:25.083Z,13.00
2019-06-07T21:24:52.102Z,13.00
2019-06-07T21:27:19.060Z,13.00
2019-06-07T21:29:45.929Z,13.00
2019-06-07T21:32:12.720Z,13.10
2019-06-07T21:34:39.782Z,13.10
2019-06-07T21:37:07.888Z,13.10
2019-06-07T21:39:34.960Z,13.10
2019-06-07T21:42:02.258Z,13.00
2019-06-07T21:44:29.402Z,12.90
2019-06-07T21:46:56.403Z,12.80
2019-06-07T21:49:23.278Z,12.70
2019-06-07T21:51:50.072Z,12.60
2019-06-07T21:54:16.874Z,12.60
2019-06-07T21:56:43.955Z,12.60
2019-06-07T21:59:11.215Z,12.50
2019-06-07T22:01:38.282Z,12.50
2019-06-07T22:04:05.434Z,12.50
2019-06-07T22:06:32.490Z,12.50
2019-06-07T22:08:59.525Z,12.40
2019-06-07T22:11:26.451Z,12.30
2019-06-07T22:13:53.594Z,12.30
2019-06-07T22:16:28.657Z,12.20
2019-06-07T22:18:49.112Z,12.20
2019-06-07T22:21:15.993Z,12.20
2019-06-07T22:23:43.820Z,12.20
2019-06-07T22:26:11.257Z,12.20
2019-06-07T22:28:38.323Z,12.10
2019-06-07T22:31:06.347Z,12.10
2019-06-07T22:33:33.357Z,12.10
2019-06-07T22:36:00.155Z,12.10
2019-06-07T22:38:26.951Z,12.10
2019-06-07T22:40:53.871Z,12.00
2019-06-07T22:43:20.870Z,12.00
2019-06-07T22:45:47.668Z,11.90
2019-06-07T22:48:15.451Z,11.90
2019-06-07T22:50:42.411Z,12.00
2019-06-07T22:53:09.454Z,11.90
2019-06-07T22:55:36.536Z,11.90
2019-06-07T22:58:03.417Z,11.90
2019-06-07T23:00:32.161Z,11.90
2019-06-07T23:02:59.094Z,11.90
2019-06-07T23:05:26.185Z,11.90
2019-06-07T23:07:53.230Z,11.80
2019-06-07T23:10:20.217Z,11.80
2019-06-07T23:12:47.721Z,11.70
2019-06-07T23:15:15.497Z,11.70
2019-06-07T23:17:42.554Z,11.50
2019-06-07T23:20:11.863Z,11.50
2019-06-07T23:22:38.817Z,11.40
2019-06-07T23:25:06.045Z,11.40
2019-06-07T23:27:33.042Z,11.40
2019-06-07T23:29:59.870Z,11.40
2019-06-07T23:32:26.665Z,11.50
2019-06-07T23:34:53.486Z,11.50
2019-06-07T23:37:21.302Z,11.60
2019-06-07T23:39:48.446Z,11.70
2019-06-07T23:42:15.563Z,11.80
2019-06-07T23:44:42.595Z,11.90
2019-06-07T23:47:12.070Z,11.90
2019-06-07T23:49:38.106Z,12.00
2019-06-07T23:52:04.929Z,12.00
2019-06-07T23:54:31.708Z,12.00
2019-06-07T23:56:58.643Z,12.00
2019-06-07T23:59:25.686Z,11.90
